createdAt,value
2019-05-22T00:02:47.236Z,86.40
2019-05-22T00:05:18.932Z,86.00
2019-05-22T00:07:53.150Z,86.60
2019-05-22T00:10:29.778Z,86.20
2019-05-22T00:12:59.014Z,86.70
2019-05-22T00:15:30.011Z,87.00
2019-05-22T00:18:07.987Z,86.30
2019-05-22T00:20:38.941Z,86.10
2019-05-22T00:23:19.158Z,86.40
2019-05-22T00:25:57.814Z,85.90
2019-05-22T00:28:35.175Z,85.30
2019-05-22T00:31:09.914Z,85.10
2019-05-22T00:33:39.751Z,85.20
2019-05-22T00:36:13.198Z,85.10
2019-05-22T00:38:46.152Z,85.40
2019-05-22T00:41:30.380Z,85.60
2019-05-22T00:44:06.491Z,85.40
2019-05-22T00:47:26.590Z,85.60
2019-05-22T00:49:58.520Z,85.10
2019-05-22T00:52:48.663Z,85.10
2019-05-22T00:55:51.244Z,85.40
2019-05-22T00:58:27.898Z,85.30
2019-05-22T01:01:05.444Z,86.20
2019-05-22T01:03:37.287Z,85.70
2019-05-22T01:06:13.294Z,85.40
2019-05-22T01:08:46.046Z,85.30
2019-05-22T01:11:18.893Z,85.70
2019-05-22T01:13:55.409Z,85.60
2019-05-22T01:16:29.644Z,86.10
2019-05-22T01:19:02.464Z,86.50
2019-05-22T01:21:33.292Z,86.20
2019-05-22T01:24:03.711Z,86.30
2019-05-22T01:26:34.086Z,86.00
2019-05-22T01:29:17.090Z,86.40
2019-05-22T01:32:06.977Z,85.90
2019-05-22T01:34:42.748Z,85.60
2019-05-22T01:37:16.685Z,85.30
2019-05-22T01:40:25.291Z,85.70
2019-05-22T01:43:02.257Z,85.40
2019-05-22T01:45:36.699Z,84.80
2019-05-22T01:48:13.439Z,85.30
2019-05-22T01:51:04.835Z,85.20
2019-05-22T01:53:56.932Z,85.30
2019-05-22T01:56:30.534Z,85.30
2019-05-22T01:59:02.429Z,84.70
2019-05-22T02:01:42.630Z,85.00
2019-05-22T02:04:19.240Z,84.70
2019-05-22T02:06:50.659Z,85.90
2019-05-22T02:09:34.345Z,84.90
2019-05-22T02:12:10.611Z,85.40
2019-05-22T02:14:49.427Z,84.70
2019-05-22T02:17:28.217Z,85.80
2019-05-22T02:19:58.194Z,84.70
2019-05-22T02:22:29.297Z,85.20
2019-05-22T02:25:08.097Z,85.70
2019-05-22T02:28:20.180Z,85.40
2019-05-22T02:30:51.452Z,85.10
2019-05-22T02:33:25.492Z,85.50
2019-05-22T02:35:55.942Z,84.70
2019-05-22T02:38:28.871Z,84.80
2019-05-22T02:41:00.582Z,85.20
2019-05-22T02:43:35.991Z,85.20
2019-05-22T02:46:09.536Z,84.80
2019-05-22T02:48:42.433Z,84.60
2019-05-22T02:51:12.585Z,85.40
2019-05-22T02:53:41.562Z,85.50
2019-05-22T02:56:47.436Z,85.10
2019-05-22T02:59:24.550Z,85.20
2019-05-22T03:02:07.593Z,85.20
2019-05-22T03:05:13.248Z,84.70
2019-05-22T03:07:45.014Z,85.20
2019-05-22T03:10:17.100Z,84.50
2019-05-22T03:12:52.228Z,85.00
2019-05-22T03:15:29.477Z,84.80
2019-05-22T03:18:14.887Z,84.40
2019-05-22T03:20:45.523Z,85.10
2019-05-22T03:23:41.428Z,84.30
2019-05-22T03:26:13.530Z,84.30
2019-05-22T03:29:40.649Z,84.80
2019-05-22T03:33:03.950Z,84.60
2019-05-22T03:35:48.073Z,84.00
2019-05-22T03:38:18.538Z,83.90
2019-05-22T03:40:48.924Z,84.60
2019-05-22T03:43:22.973Z,84.10
2019-05-22T03:45:56.332Z,84.50
2019-05-22T03:48:26.841Z,84.10
2019-05-22T03:51:03.093Z,85.00
2019-05-22T03:53:40.527Z,84.80
2019-05-22T03:56:10.242Z,84.00
2019-05-22T03:59:13.544Z,84.40
2019-05-22T04:01:44.939Z,84.60
2019-05-22T04:04:40.270Z,84.60
2019-05-22T04:07:44.800Z,83.90
2019-05-22T04:10:16.021Z,84.30
2019-05-22T04:12:45.962Z,84.00
2019-05-22T04:15:18.461Z,84.30
2019-05-22T04:17:48.483Z,84.50
2019-05-22T04:20:19.766Z,84.70
2019-05-22T04:22:55.663Z,84.30
2019-05-22T04:25:27.135Z,84.30
2019-05-22T04:27:57.405Z,84.40
2019-05-22T04:30:31.609Z,84.20
2019-05-22T04:33:00.032Z,84.80
2019-05-22T04:35:34.139Z,84.30
2019-05-22T04:38:28.329Z,85.20
2019-05-22T04:41:01.401Z,84.70
2019-05-22T04:43:38.503Z,85.30
2019-05-22T04:46:11.213Z,85.30
2019-05-22T04:48:39.716Z,84.90
2019-05-22T04:51:33.930Z,85.00
2019-05-22T04:54:14.135Z,84.80
2019-05-22T04:56:51.852Z,84.10
2019-05-22T04:59:28.575Z,84.70
2019-05-22T05:02:21.864Z,85.00
2019-05-22T05:04:52.846Z,83.60
2019-05-22T05:07:37.755Z,84.20
2019-05-22T05:10:22.809Z,84.10
2019-05-22T05:12:54.533Z,84.00
2019-05-22T05:15:23.871Z,83.60
2019-05-22T05:18:09.158Z,83.70
2019-05-22T05:20:41.109Z,83.70
2019-05-22T05:23:13.947Z,83.80
2019-05-22T05:25:47.975Z,83.60
2019-05-22T05:28:20.780Z,82.80
2019-05-22T05:30:51.840Z,83.50
2019-05-22T05:33:33.085Z,82.80
2019-05-22T05:36:17.061Z,83.40
2019-05-22T05:38:50.391Z,83.60
2019-05-22T05:41:18.081Z,83.10
2019-05-22T05:43:47.057Z,83.00
2019-05-22T05:46:25.253Z,81.20
2019-05-22T05:48:58.373Z,80.40
2019-05-22T05:51:33.819Z,80.10
2019-05-22T05:54:23.039Z,81.20
2019-05-22T05:56:53.256Z,79.00
2019-05-22T05:59:29.891Z,80.20
2019-05-22T06:02:27.731Z,78.70
2019-05-22T06:05:03.609Z,78.30
2019-05-22T06:07:33.902Z,82.20
2019-05-22T06:10:32.416Z,78.60
2019-05-22T06:13:03.692Z,76.80
2019-05-22T06:16:00.231Z,75.50
2019-05-22T06:18:37.123Z,75.60
2019-05-22T06:21:11.043Z,74.80
2019-05-22T06:24:27.495Z,75.90
2019-05-22T06:27:24.116Z,74.50
2019-05-22T06:29:59.281Z,74.70
2019-05-22T06:33:16.515Z,71.50
2019-05-22T06:35:46.876Z,70.90
2019-05-22T06:38:49.144Z,72.80
2019-05-22T06:41:26.185Z,72.30
2019-05-22T06:44:35.329Z,72.70
2019-05-22T06:47:52.778Z,73.30
2019-05-22T06:50:32.615Z,72.00
2019-05-22T06:53:10.008Z,73.50
2019-05-22T06:55:34.782Z,73.70
2019-05-22T06:58:07.805Z,73.40
2019-05-22T07:00:38.676Z,73.40
2019-05-22T07:03:18.709Z,71.90
2019-05-22T07:05:47.611Z,73.60
2019-05-22T07:08:18.584Z,72.60
2019-05-22T07:10:49.782Z,68.70
2019-05-22T07:13:22.871Z,67.70
2019-05-22T07:16:09.169Z,67.40
2019-05-22T07:18:39.877Z,61.00
2019-05-22T07:21:12.597Z,62.30
2019-05-22T07:23:43.348Z,62.30
2019-05-22T07:26:21.049Z,59.80
2019-05-22T07:28:54.141Z,56.80
2019-05-22T07:31:53.835Z,56.30
2019-05-22T07:34:25.457Z,57.40
2019-05-22T07:36:56.203Z,53.40
2019-05-22T07:39:27.838Z,55.30
2019-05-22T07:42:00.540Z,52.80
2019-05-22T07:45:27.715Z,52.90
2019-05-22T07:47:59.643Z,50.80
2019-05-22T07:50:33.783Z,46.20
2019-05-22T07:53:06.981Z,51.00
2019-05-22T07:55:37.751Z,49.80
2019-05-22T07:58:14.684Z,48.00
2019-05-22T08:00:59.970Z,47.80
2019-05-22T08:03:32.055Z,47.30
2019-05-22T08:06:01.833Z,47.10
2019-05-22T08:08:37.857Z,45.60
2019-05-22T08:11:26.237Z,45.80
2019-05-22T08:13:56.347Z,45.30
2019-05-22T08:17:22.380Z,45.40
2019-05-22T08:20:00.220Z,46.00
2019-05-22T08:22:42.799Z,42.80
2019-05-22T08:25:15.113Z,40.00
2019-05-22T08:27:46.325Z,42.60
2019-05-22T08:30:18.510Z,41.30
2019-05-22T08:33:15.856Z,42.00
2019-05-22T08:36:01.774Z,39.00
2019-05-22T08:38:34.553Z,42.10
2019-05-22T08:41:06.844Z,37.80
2019-05-22T08:44:03.318Z,42.60
2019-05-22T08:46:30.904Z,40.80
2019-05-22T08:49:49.489Z,40.90
2019-05-22T08:52:23.485Z,38.80
2019-05-22T08:54:53.559Z,39.00
2019-05-22T08:57:26.683Z,38.90
2019-05-22T09:00:05.609Z,43.10
2019-05-22T09:02:37.611Z,39.00
2019-05-22T09:05:20.758Z,39.00
2019-05-22T09:07:55.481Z,41.70
2019-05-22T09:10:36.903Z,40.20
2019-05-22T09:13:12.995Z,40.50
2019-05-22T09:15:45.228Z,39.90
2019-05-22T09:18:14.787Z,37.80
2019-05-22T09:20:49.711Z,38.00
2019-05-22T09:23:25.595Z,37.70
2019-05-22T09:25:55.947Z,37.50
2019-05-22T09:28:26.529Z,37.60
2019-05-22T09:30:57.856Z,37.00
2019-05-22T09:33:45.113Z,37.00
2019-05-22T09:36:16.987Z,37.10
2019-05-22T09:38:52.959Z,38.00
2019-05-22T09:42:06.448Z,36.70
2019-05-22T09:45:39.801Z,37.70
2019-05-22T09:48:03.514Z,40.10
2019-05-22T09:50:34.204Z,38.20
2019-05-22T09:53:14.860Z,37.10
2019-05-22T09:55:47.482Z,37.30
2019-05-22T09:58:17.861Z,39.80
2019-05-22T10:00:48.574Z,39.90
2019-05-22T10:03:19.111Z,40.30
2019-05-22T10:06:11.890Z,38.20
2019-05-22T10:08:53.793Z,40.10
2019-05-22T10:11:30.033Z,40.00
2019-05-22T10:14:00.785Z,40.20
2019-05-22T10:16:31.002Z,39.70
2019-05-22T10:19:02.196Z,40.30
2019-05-22T10:21:51.117Z,40.50
2019-05-22T10:24:21.821Z,41.50
2019-05-22T10:26:56.117Z,41.30
2019-05-22T10:29:36.665Z,40.10
2019-05-22T10:32:07.757Z,40.60
2019-05-22T10:35:39.277Z,40.50
2019-05-22T10:38:11.185Z,40.00
2019-05-22T10:40:40.408Z,41.10
2019-05-22T10:43:14.260Z,41.70
2019-05-22T10:46:12.443Z,40.40
2019-05-22T10:48:48.863Z,41.30
2019-05-22T10:51:45.460Z,40.90
2019-05-22T10:54:16.200Z,40.60
2019-05-22T10:56:47.239Z,38.70
2019-05-22T10:59:18.755Z,37.80
2019-05-22T11:01:50.470Z,39.40
2019-05-22T11:04:23.842Z,39.80
2019-05-22T11:06:55.113Z,40.00
2019-05-22T11:09:40.127Z,39.50
2019-05-22T11:12:14.918Z,39.10
2019-05-22T11:14:53.452Z,37.60
2019-05-22T11:17:25.566Z,37.20
2019-05-22T11:19:57.892Z,39.10
2019-05-22T11:22:59.213Z,40.60
2019-05-22T11:25:40.523Z,38.30
2019-05-22T11:28:11.944Z,37.10
2019-05-22T11:30:43.318Z,37.10
2019-05-22T11:33:43.928Z,37.10
2019-05-22T11:36:24.731Z,35.70
2019-05-22T11:39:13.555Z,35.60
2019-05-22T11:41:54.429Z,33.90
2019-05-22T11:44:31.394Z,34.70
2019-05-22T11:47:01.887Z,34.60
2019-05-22T11:49:54.094Z,35.80
2019-05-22T11:52:33.830Z,33.50
2019-05-22T11:55:04.225Z,32.90
2019-05-22T11:57:38.470Z,32.00
2019-05-22T12:00:11.491Z,35.00
2019-05-22T12:02:51.029Z,34.90
2019-05-22T12:05:22.023Z,35.50
2019-05-22T12:07:53.403Z,33.20
2019-05-22T12:10:28.911Z,34.00
2019-05-22T12:13:54.873Z,35.30
2019-05-22T12:16:26.776Z,33.00
2019-05-22T12:19:01.673Z,34.10
2019-05-22T12:21:56.558Z,33.80
2019-05-22T12:24:36.584Z,38.50
2019-05-22T12:27:03.387Z,34.00
2019-05-22T12:30:21.673Z,32.70
2019-05-22T12:32:55.167Z,35.70
2019-05-22T12:35:31.077Z,34.30
2019-05-22T12:38:05.216Z,33.20
2019-05-22T12:40:36.478Z,31.60
2019-05-22T12:43:07.172Z,33.60
2019-05-22T12:45:43.056Z,34.00
2019-05-22T12:48:16.096Z,34.40
2019-05-22T12:50:51.233Z,35.40
2019-05-22T12:53:20.324Z,34.60
2019-05-22T12:55:50.692Z,35.40
2019-05-22T12:58:24.134Z,34.30
2019-05-22T13:10:18.011Z,33.90
2019-05-22T13:17:37.607Z,37.00
2019-05-22T13:20:08.090Z,37.20
2019-05-22T13:27:38.529Z,36.10
2019-05-22T13:30:21.871Z,37.20
2019-05-22T13:33:19.170Z,36.40
2019-05-22T13:35:49.294Z,36.20
2019-05-22T13:38:20.401Z,33.50
2019-05-22T13:40:53.164Z,35.50
2019-05-22T13:44:24.169Z,35.70
2019-05-22T13:47:04.846Z,33.60
2019-05-22T13:49:45.239Z,36.40
2019-05-22T13:52:22.729Z,35.40
2019-05-22T13:55:00.432Z,35.30
2019-05-22T13:57:36.217Z,34.40
2019-05-22T14:00:16.978Z,33.30
2019-05-22T14:02:50.059Z,33.10
2019-05-22T14:05:33.687Z,32.60
2019-05-22T14:08:04.148Z,36.60
2019-05-22T14:10:33.539Z,34.70
2019-05-22T14:13:07.471Z,37.30
2019-05-22T14:15:52.062Z,33.50
2019-05-22T14:18:14.635Z,35.70
2019-05-22T14:20:49.747Z,33.30
2019-05-22T14:23:33.088Z,35.20
2019-05-22T14:26:02.381Z,36.10
2019-05-22T14:28:33.328Z,36.70
2019-05-22T14:31:02.948Z,33.60
2019-05-22T14:33:40.389Z,36.50
2019-05-22T14:36:10.764Z,31.30
2019-05-22T14:38:43.654Z,29.40
2019-05-22T14:41:53.540Z,30.90
2019-05-22T14:44:26.495Z,31.40
2019-05-22T14:47:12.266Z,29.60
2019-05-22T14:49:37.378Z,30.80
2019-05-22T14:52:13.057Z,28.80
2019-05-22T14:54:54.159Z,29.30
2019-05-22T14:58:24.628Z,34.60
2019-05-22T15:00:52.487Z,30.00
2019-05-22T15:03:23.540Z,31.50
2019-05-22T15:05:59.887Z,31.20
2019-05-22T15:08:30.090Z,31.50
2019-05-22T15:10:58.248Z,32.70
2019-05-22T15:13:28.444Z,31.10
2019-05-22T15:15:56.249Z,31.90
2019-05-22T15:18:24.206Z,32.10
2019-05-22T15:21:00.854Z,32.20
2019-05-22T15:23:30.511Z,33.30
2019-05-22T15:26:04.643Z,33.50
2019-05-22T15:28:32.367Z,35.80
2019-05-22T15:31:00.750Z,36.00
2019-05-22T15:33:33.279Z,34.40
2019-05-22T15:36:07.589Z,36.20
2019-05-22T15:38:41.637Z,35.70
2019-05-22T15:41:12.654Z,35.90
2019-05-22T15:43:41.644Z,36.00
2019-05-22T15:46:18.409Z,36.30
2019-05-22T15:48:52.998Z,35.60
2019-05-22T15:51:23.754Z,35.70
2019-05-22T15:53:52.858Z,37.30
2019-05-22T15:56:22.733Z,38.10
2019-05-22T15:58:57.479Z,37.00
2019-05-22T16:01:35.561Z,41.30
2019-05-22T16:04:05.483Z,40.80
2019-05-22T16:06:37.309Z,41.50
2019-05-22T16:09:07.672Z,42.90
2019-05-22T16:11:35.435Z,39.80
2019-05-22T16:14:06.827Z,42.70
2019-05-22T16:16:39.267Z,42.50
2019-05-22T16:19:11.080Z,41.60
2019-05-22T16:21:45.359Z,40.40
2019-05-22T16:24:35.553Z,42.20
2019-05-22T16:27:15.639Z,41.30
2019-05-22T16:29:54.943Z,40.00
2019-05-22T16:32:25.721Z,39.30
2019-05-22T16:34:57.171Z,37.10
2019-05-22T16:37:53.768Z,37.30
2019-05-22T16:40:29.325Z,34.80
2019-05-22T16:43:08.267Z,34.70
2019-05-22T16:45:45.013Z,36.50
2019-05-22T16:48:29.145Z,34.30
2019-05-22T16:50:50.813Z,35.40
2019-05-22T16:53:48.475Z,34.80
2019-05-22T16:56:21.611Z,37.10
2019-05-22T16:58:51.693Z,40.90
2019-05-22T17:01:31.890Z,36.40
2019-05-22T17:05:02.716Z,43.40
2019-05-22T17:12:04.281Z,40.70
2019-05-22T17:14:45.822Z,39.20
2019-05-22T17:17:21.731Z,40.60
2019-05-22T17:19:58.220Z,39.20
2019-05-22T17:22:40.899Z,38.60
2019-05-22T17:25:13.686Z,37.80
2019-05-22T17:27:46.704Z,40.30
2019-05-22T17:30:22.883Z,41.60
2019-05-22T17:32:53.774Z,43.10
2019-05-22T17:35:25.409Z,42.00
2019-05-22T17:38:06.848Z,41.50
2019-05-22T17:40:44.291Z,42.50
2019-05-22T17:43:18.149Z,42.10
2019-05-22T17:45:50.699Z,42.20
2019-05-22T17:48:22.917Z,42.70
2019-05-22T17:50:57.867Z,42.70
2019-05-22T17:53:38.226Z,44.00
2019-05-22T17:56:24.617Z,43.10
2019-05-22T17:59:26.695Z,40.50
2019-05-22T18:01:52.623Z,43.20
2019-05-22T18:04:25.779Z,41.90
2019-05-22T18:06:57.337Z,40.30
2019-05-22T18:09:44.994Z,44.10
2019-05-22T18:12:21.864Z,42.90
2019-05-22T18:14:52.394Z,41.70
2019-05-22T18:17:30.785Z,42.90
2019-05-22T18:20:04.603Z,42.70
2019-05-22T18:25:43.791Z,43.90
2019-05-22T18:28:18.120Z,42.20
2019-05-22T18:30:52.680Z,44.70
2019-05-22T18:33:29.063Z,44.70
2019-05-22T18:36:02.387Z,44.90
2019-05-22T18:38:42.457Z,45.50
2019-05-22T18:41:52.901Z,45.50
2019-05-22T18:44:57.872Z,45.60
2019-05-22T18:47:27.093Z,46.30
2019-05-22T18:49:57.825Z,46.10
2019-05-22T18:52:40.628Z,46.20
2019-05-22T18:55:00.393Z,46.80
2019-05-22T18:57:42.412Z,47.00
2019-05-22T19:00:36.796Z,47.50
2019-05-22T19:03:20.288Z,47.00
2019-05-22T19:05:56.733Z,47.00
2019-05-22T19:08:28.514Z,47.10
2019-05-22T19:10:59.858Z,47.40
2019-05-22T19:13:31.902Z,47.80
2019-05-22T19:16:14.904Z,47.70
2019-05-22T19:19:01.082Z,48.40
2019-05-22T19:21:46.622Z,48.60
2019-05-22T19:24:34.328Z,49.10
2019-05-22T19:27:07.638Z,49.60
2019-05-22T19:29:47.919Z,49.70
2019-05-22T19:32:21.086Z,50.40
2019-05-22T19:34:51.475Z,52.20
2019-05-22T19:37:22.127Z,51.10
2019-05-22T19:40:00.322Z,51.50
2019-05-22T19:42:37.365Z,51.40
2019-05-22T19:45:08.396Z,51.40
2019-05-22T19:47:47.719Z,51.40
2019-05-22T19:50:29.143Z,51.80
2019-05-22T19:53:17.434Z,52.10
2019-05-22T19:55:48.655Z,52.40
2019-05-22T19:58:22.125Z,52.20
2019-05-22T20:00:53.668Z,52.10
2019-05-22T20:03:32.534Z,53.00
2019-05-22T20:06:38.662Z,53.80
2019-05-22T20:09:16.429Z,53.90
2019-05-22T20:11:53.791Z,53.80
2019-05-22T20:14:39.854Z,53.30
2019-05-22T20:17:49.618Z,54.10
2019-05-22T20:20:20.602Z,54.70
2019-05-22T20:23:34.689Z,54.50
2019-05-22T20:25:58.227Z,55.10
2019-05-22T20:28:52.871Z,55.30
2019-05-22T20:31:26.972Z,55.20
2019-05-22T20:34:18.606Z,55.60
2019-05-22T20:36:54.482Z,55.80
2019-05-22T20:40:05.857Z,56.30
2019-05-22T20:42:42.102Z,56.50
2019-05-22T20:45:17.680Z,56.40
2019-05-22T20:48:22.690Z,56.60
2019-05-22T20:50:55.132Z,56.80
2019-05-22T20:53:52.224Z,56.90
2019-05-22T20:56:59.110Z,58.40
2019-05-22T20:59:36.008Z,57.80
2019-05-22T21:02:07.192Z,59.30
2019-05-22T21:04:40.151Z,58.80
2019-05-22T21:07:14.528Z,60.00
2019-05-22T21:09:42.759Z,59.00
2019-05-22T21:13:16.984Z,59.80
2019-05-22T21:15:51.400Z,60.10
2019-05-22T21:18:34.256Z,60.00
2019-05-22T21:21:07.638Z,59.40
2019-05-22T21:27:33.215Z,60.60
2019-05-22T21:30:43.376Z,60.30
2019-05-22T21:33:42.075Z,60.70
2019-05-22T21:36:19.354Z,61.70
2019-05-22T21:38:50.192Z,62.80
2019-05-22T21:41:23.219Z,62.00
2019-05-22T21:44:00.368Z,61.80
2019-05-22T21:46:36.435Z,62.40
2019-05-22T21:49:12.124Z,61.50
2019-05-22T21:51:59.229Z,61.90
2019-05-22T21:55:19.173Z,62.90
2019-05-22T21:57:49.326Z,64.60
2019-05-22T22:00:43.720Z,64.20
2019-05-22T22:03:38.984Z,64.80
2019-05-22T22:06:37.994Z,63.00
2019-05-22T22:09:14.001Z,63.40
2019-05-22T22:12:02.887Z,63.20
2019-05-22T22:14:36.358Z,64.00
2019-05-22T22:17:14.787Z,65.40
2019-05-22T22:19:48.968Z,64.00
2019-05-22T22:22:31.121Z,64.50
2019-05-22T22:25:05.382Z,64.70
2019-05-22T22:27:38.493Z,64.30
2019-05-22T22:30:14.044Z,64.80
2019-05-22T22:32:45.324Z,64.30
2019-05-22T22:35:16.770Z,65.30
2019-05-22T22:37:45.760Z,65.40
2019-05-22T22:40:18.014Z,64.80
2019-05-22T22:42:58.139Z,64.00
2019-05-22T22:45:41.511Z,65.70
2019-05-22T22:48:22.791Z,66.80
2019-05-22T22:51:02.910Z,66.60
2019-05-22T22:53:34.496Z,65.80
2019-05-22T22:56:28.102Z,66.30
2019-05-22T22:59:14.941Z,65.40
2019-05-22T23:02:42.700Z,67.60
2019-05-22T23:05:12.307Z,67.40
2019-05-22T23:07:43.270Z,69.70
2019-05-22T23:10:13.934Z,69.90
2019-05-22T23:12:47.731Z,68.50
2019-05-22T23:15:18.440Z,68.60
2019-05-22T23:17:48.510Z,68.00
2019-05-22T23:20:17.797Z,68.40
2019-05-22T23:22:46.940Z,71.80
2019-05-22T23:25:23.541Z,70.60
2019-05-22T23:27:54.039Z,70.00
2019-05-22T23:30:28.230Z,70.40
2019-05-22T23:33:11.499Z,69.00
2019-05-22T23:35:47.163Z,72.00
2019-05-22T23:38:20.664Z,69.70
2019-05-22T23:40:53.847Z,70.10
2019-05-22T23:43:23.639Z,69.90
2019-05-22T23:45:54.053Z,69.60
2019-05-22T23:48:30.883Z,71.00
2019-05-22T23:51:02.283Z,72.30
2019-05-22T23:53:35.627Z,74.20
2019-05-22T23:56:04.302Z,72.70
2019-05-22T23:58:51.624Z,71.40
